createdAt,value
2024-01-03T00:00:28.037Z,94.46
2024-01-03T00:02:55.086Z,95.09
2024-01-03T00:05:32.969Z,95.37
2024-01-03T00:07:59.390Z,95.53
2024-01-03T00:10:42.117Z,95.60
2024-01-03T00:13:30.782Z,94.66
2024-01-03T00:16:19.200Z,94.25
2024-01-03T00:18:55.957Z,93.83
2024-01-03T00:21:27.576Z,93.85
2024-01-03T00:24:03.910Z,93.98
2024-01-03T00:26:31.924Z,94.14
2024-01-03T00:28:58.709Z,94.88
2024-01-03T00:31:42.207Z,95.03
2024-01-03T00:34:14.776Z,94.95
2024-01-03T00:36:41.419Z,95.43
2024-01-03T00:39:07.843Z,95.36
2024-01-03T00:41:34.470Z,95.49
2024-01-03T00:44:00.936Z,95.36
2024-01-03T00:46:27.350Z,95.46
2024-01-03T00:48:53.959Z,96.00
2024-01-03T00:51:20.461Z,96.00
2024-01-03T00:53:46.964Z,95.92
2024-01-03T00:56:15.122Z,95.92
2024-01-03T00:58:43.733Z,95.79
2024-01-03T01:01:10.511Z,95.67
2024-01-03T01:03:37.104Z,95.62
2024-01-03T01:06:03.982Z,95.73
2024-01-03T01:08:30.570Z,95.48
2024-01-03T01:10:56.995Z,95.50
2024-01-03T01:13:23.424Z,95.10
2024-01-03T01:15:49.872Z,93.88
2024-01-03T01:18:16.603Z,92.02
2024-01-03T01:20:43.532Z,90.92
2024-01-03T01:23:10.045Z,90.42
2024-01-03T01:25:36.478Z,89.98
2024-01-03T01:28:03.062Z,89.39
2024-01-03T01:30:29.771Z,89.45
2024-01-03T01:32:56.281Z,89.27
2024-01-03T01:35:22.860Z,89.28
2024-01-03T01:37:49.764Z,89.15
2024-01-03T01:40:16.290Z,90.09
2024-01-03T01:42:44.775Z,89.29
2024-01-03T01:45:11.436Z,89.43
2024-01-03T01:47:43.266Z,89.24
2024-01-03T01:50:11.053Z,89.07
2024-01-03T01:52:38.566Z,88.69
2024-01-03T01:55:06.109Z,88.10
2024-01-03T01:57:34.112Z,88.28
2024-01-03T02:00:03.463Z,87.23
2024-01-03T02:02:31.580Z,87.45
2024-01-03T02:04:59.383Z,86.16
2024-01-03T02:07:26.408Z,86.69
2024-01-03T02:09:53.811Z,86.07
2024-01-03T02:12:30.266Z,86.01
2024-01-03T02:14:56.962Z,86.22
2024-01-03T02:17:23.879Z,85.33
2024-01-03T02:19:51.527Z,84.96
2024-01-03T02:22:18.004Z,84.65
2024-01-03T02:24:44.416Z,84.96
2024-01-03T02:27:11.508Z,84.90
2024-01-03T02:29:38.159Z,84.46
2024-01-03T02:32:04.835Z,84.45
2024-01-03T02:34:32.413Z,83.78
2024-01-03T02:36:59.610Z,84.34
2024-01-03T02:39:25.966Z,83.56
2024-01-03T02:41:52.435Z,83.21
2024-01-03T02:44:18.976Z,83.72
2024-01-03T02:46:45.440Z,83.22
2024-01-03T02:49:12.096Z,83.41
2024-01-03T02:51:38.569Z,83.91
2024-01-03T02:54:04.987Z,83.40
2024-01-03T02:56:31.517Z,83.35
2024-01-03T02:58:57.963Z,83.22
2024-01-03T03:01:24.456Z,83.73
2024-01-03T03:03:51.156Z,83.95
2024-01-03T03:06:17.843Z,83.87
2024-01-03T03:08:44.502Z,83.73
2024-01-03T03:11:11.192Z,83.50
2024-01-03T03:13:37.673Z,83.39
2024-01-03T03:16:04.240Z,83.76
2024-01-03T03:18:30.937Z,83.41
2024-01-03T03:20:57.601Z,82.55
2024-01-03T03:23:24.084Z,83.27
2024-01-03T03:25:50.545Z,83.09
2024-01-03T03:28:17.030Z,83.41
2024-01-03T03:30:43.456Z,83.85
2024-01-03T03:33:10.074Z,84.01
2024-01-03T03:35:36.707Z,83.96
2024-01-03T03:38:03.160Z,84.85
2024-01-03T03:40:29.552Z,85.17
2024-01-03T03:42:56.109Z,85.42
2024-01-03T03:45:23.350Z,85.44
2024-01-03T03:47:49.808Z,85.70
2024-01-03T03:50:16.358Z,84.82
2024-01-03T03:52:42.773Z,84.57
2024-01-03T03:55:09.749Z,84.79
2024-01-03T03:57:36.149Z,85.04
2024-01-03T04:00:06.471Z,85.38
2024-01-03T04:02:32.967Z,84.96
2024-01-03T04:04:59.564Z,85.08
2024-01-03T04:07:26.222Z,85.08
2024-01-03T04:09:52.633Z,85.27
2024-01-03T04:12:19.104Z,85.64
2024-01-03T04:14:45.573Z,86.62
2024-01-03T04:17:11.994Z,86.80
2024-01-03T04:19:39.749Z,87.57
2024-01-03T04:22:07.139Z,87.52
2024-01-03T04:24:33.567Z,87.77
2024-01-03T04:27:00.416Z,87.27
2024-01-03T04:29:27.421Z,87.07
2024-01-03T04:31:53.924Z,87.33
2024-01-03T04:34:20.536Z,86.99
2024-01-03T04:36:46.992Z,86.90
2024-01-03T04:39:13.643Z,86.66
2024-01-03T04:41:40.234Z,86.83
2024-01-03T04:44:06.710Z,86.57
2024-01-03T04:46:33.151Z,86.78
2024-01-03T04:48:59.742Z,86.50
2024-01-03T04:51:26.273Z,86.86
2024-01-03T04:53:52.841Z,86.50
2024-01-03T04:56:19.665Z,86.69
2024-01-03T04:58:46.098Z,86.55
2024-01-03T05:01:12.538Z,86.72
2024-01-03T05:03:39.039Z,86.84
2024-01-03T05:06:05.834Z,87.04
2024-01-03T05:08:32.323Z,86.85
2024-01-03T05:10:58.816Z,86.56
2024-01-03T05:13:26.941Z,86.83
2024-01-03T05:15:53.358Z,86.91
2024-01-03T05:18:19.962Z,86.68
2024-01-03T05:20:46.504Z,86.51
2024-01-03T05:23:12.981Z,87.19
2024-01-03T05:25:39.393Z,86.76
2024-01-03T05:28:06.060Z,87.55
2024-01-03T05:30:32.616Z,88.60
2024-01-03T05:32:59.153Z,88.63
2024-01-03T05:35:25.641Z,88.42
2024-01-03T05:37:52.385Z,88.98
2024-01-03T05:40:21.559Z,88.70
2024-01-03T05:42:48.046Z,88.64
2024-01-03T05:45:14.533Z,88.43
2024-01-03T05:47:41.051Z,88.30
2024-01-03T05:50:10.139Z,88.24
2024-01-03T05:52:39.258Z,88.29
2024-01-03T05:55:07.702Z,88.68
2024-01-03T05:57:34.852Z,88.53
2024-01-03T06:00:01.837Z,88.79
2024-01-03T06:02:28.359Z,88.89
2024-01-03T06:04:58.149Z,88.72
2024-01-03T06:07:25.629Z,88.87
2024-01-03T06:09:52.067Z,88.60
2024-01-03T06:12:18.467Z,88.98
2024-01-03T06:14:45.091Z,88.80
2024-01-03T06:17:11.631Z,89.21
2024-01-03T06:19:38.149Z,89.07
2024-01-03T06:22:05.125Z,88.78
2024-01-03T06:24:31.552Z,88.98
2024-01-03T06:26:58.049Z,89.14
2024-01-03T06:29:24.602Z,89.44
2024-01-03T06:31:51.032Z,89.22
2024-01-03T06:34:17.640Z,89.50
2024-01-03T06:36:44.177Z,89.29
2024-01-03T06:39:10.588Z,89.49
2024-01-03T06:41:37.065Z,89.86
2024-01-03T06:44:03.667Z,89.33
2024-01-03T06:46:30.071Z,89.88
2024-01-03T06:49:00.540Z,89.69
2024-01-03T06:51:27.296Z,89.83
2024-01-03T06:53:53.765Z,89.84
2024-01-03T06:56:25.868Z,89.87
2024-01-03T06:58:52.737Z,90.47
2024-01-03T07:01:19.317Z,90.79
2024-01-03T07:03:45.934Z,90.90
2024-01-03T07:06:12.679Z,91.21
2024-01-03T07:08:39.349Z,91.18
2024-01-03T07:11:05.862Z,91.32
2024-01-03T07:13:33.447Z,91.68
2024-01-03T07:15:59.823Z,91.37
2024-01-03T07:18:26.350Z,91.51
2024-01-03T07:20:52.903Z,91.46
2024-01-03T07:23:19.488Z,91.26
2024-01-03T07:25:45.921Z,91.71
2024-01-03T07:28:12.403Z,91.42
2024-01-03T07:30:38.892Z,91.86
2024-01-03T07:33:05.703Z,92.15
2024-01-03T07:35:32.378Z,91.93
2024-01-03T07:37:58.893Z,91.86
2024-01-03T07:40:25.384Z,92.31
2024-01-03T07:42:52.019Z,92.32
2024-01-03T07:45:18.538Z,92.49
2024-01-03T07:47:45.081Z,92.56
2024-01-03T07:50:12.916Z,92.68
2024-01-03T07:52:39.517Z,92.98
2024-01-03T07:55:06.099Z,92.85
2024-01-03T07:57:32.499Z,93.04
2024-01-03T07:59:59.318Z,93.47
2024-01-03T08:02:25.858Z,93.24
2024-01-03T08:04:52.426Z,93.17
2024-01-03T08:07:18.907Z,93.52
2024-01-03T08:09:45.328Z,93.62
2024-01-03T08:12:11.882Z,93.67
2024-01-03T08:14:38.619Z,93.25
2024-01-03T08:17:05.393Z,93.52
2024-01-03T08:19:32.122Z,93.86
2024-01-03T08:22:00.157Z,93.72
2024-01-03T08:24:27.528Z,93.55
2024-01-03T08:26:54.102Z,93.86
2024-01-03T08:29:20.590Z,93.56
2024-01-03T08:31:50.492Z,93.81
2024-01-03T08:34:17.139Z,93.79
2024-01-03T08:36:45.661Z,93.44
2024-01-03T08:39:12.458Z,93.65
2024-01-03T08:41:39.225Z,93.61
2024-01-03T08:44:06.764Z,93.77
2024-01-03T08:46:42.913Z,93.51
2024-01-03T08:49:10.143Z,93.59
2024-01-03T08:51:36.872Z,93.61
2024-01-03T08:54:03.643Z,93.91
2024-01-03T08:56:30.122Z,93.74
2024-01-03T08:58:56.590Z,93.70
2024-01-03T09:01:24.858Z,93.88
2024-01-03T09:03:51.984Z,93.65
2024-01-03T09:06:23.008Z,93.67
2024-01-03T09:08:55.859Z,93.48
2024-01-03T09:11:27.662Z,93.50
2024-01-03T09:13:54.967Z,93.55
2024-01-03T09:16:24.184Z,93.34
2024-01-03T09:18:51.746Z,93.79
2024-01-03T09:21:18.616Z,93.61
2024-01-03T09:23:45.422Z,93.73
2024-01-03T09:26:12.958Z,93.70
2024-01-03T09:28:40.094Z,93.94
2024-01-03T09:31:07.231Z,93.64
2024-01-03T09:33:34.053Z,93.60
2024-01-03T09:36:01.083Z,93.64
2024-01-03T09:38:27.611Z,93.85
2024-01-03T09:40:54.214Z,93.75
2024-01-03T09:43:21.974Z,93.63
2024-01-03T09:45:49.141Z,93.48
2024-01-03T09:48:15.896Z,93.79
2024-01-03T09:50:42.969Z,94.01
2024-01-03T09:53:11.123Z,93.78
2024-01-03T09:55:39.261Z,94.61
2024-01-03T09:58:05.796Z,94.79
2024-01-03T10:00:32.302Z,95.33
2024-01-03T10:03:05.514Z,95.71
2024-01-03T10:05:32.692Z,96.32
2024-01-03T10:07:59.566Z,96.26
2024-01-03T10:10:34.826Z,96.66
2024-01-03T10:13:17.140Z,96.72
2024-01-03T10:15:45.984Z,96.65
2024-01-03T10:18:17.823Z,97.09
2024-01-03T10:20:46.313Z,96.80
2024-01-03T10:23:14.056Z,96.67
2024-01-03T10:25:42.446Z,96.76
2024-01-03T10:28:11.806Z,96.95
2024-01-03T10:30:38.598Z,96.68
2024-01-03T10:33:06.972Z,97.09
2024-01-03T10:35:38.005Z,96.68
2024-01-03T10:38:06.245Z,96.76
2024-01-03T10:40:34.356Z,96.71
2024-01-03T10:43:02.035Z,96.41
2024-01-03T10:45:28.994Z,96.51
2024-01-03T10:47:55.596Z,96.32
2024-01-03T10:50:22.244Z,95.72
2024-01-03T10:52:56.272Z,95.73
2024-01-03T10:55:36.176Z,95.41
2024-01-03T10:58:05.970Z,95.29
2024-01-03T11:02:04.677Z,95.46
2024-01-03T11:04:41.590Z,94.79
2024-01-03T11:07:17.008Z,94.47
2024-01-03T11:09:45.232Z,94.37
2024-01-03T11:12:17.358Z,94.59
2024-01-03T11:14:45.112Z,94.67
2024-01-03T11:17:12.130Z,94.91
2024-01-03T11:19:40.129Z,95.17
2024-01-03T11:22:07.037Z,95.14
2024-01-03T11:24:33.397Z,95.24
2024-01-03T11:27:05.191Z,95.13
2024-01-03T11:29:40.048Z,95.28
2024-01-03T11:32:08.198Z,94.90
2024-01-03T11:34:41.335Z,94.70
2024-01-03T11:37:27.701Z,94.60
2024-01-03T11:39:54.945Z,94.73
2024-01-03T11:42:25.007Z,94.46
2024-01-03T11:45:01.604Z,94.75
2024-01-03T11:47:28.474Z,94.97
2024-01-03T11:49:58.925Z,95.01
2024-01-03T11:52:26.329Z,94.94
2024-01-03T11:54:53.575Z,94.77
2024-01-03T11:57:23.848Z,94.51
2024-01-03T11:59:59.848Z,94.40
2024-01-03T12:02:27.121Z,93.96
2024-01-03T12:05:03.680Z,93.83
2024-01-03T12:07:33.937Z,93.52
2024-01-03T12:10:00.951Z,93.33
2024-01-03T12:12:27.874Z,93.41
2024-01-03T12:14:55.386Z,93.50
2024-01-03T12:17:29.146Z,92.89
2024-01-03T12:20:08.162Z,92.22
2024-01-03T12:22:34.952Z,91.75
2024-01-03T12:25:01.524Z,91.84
2024-01-03T12:27:28.110Z,92.15
2024-01-03T12:30:11.954Z,91.79
2024-01-03T12:32:38.678Z,92.14
2024-01-03T12:35:05.414Z,92.22
2024-01-03T12:37:31.830Z,92.33
2024-01-03T12:39:58.449Z,92.29
2024-01-03T12:42:32.494Z,92.59
2024-01-03T12:45:06.820Z,91.81
2024-01-03T12:47:33.398Z,91.22
2024-01-03T12:50:00.069Z,91.51
2024-01-03T12:52:28.978Z,90.25
2024-01-03T12:54:55.520Z,90.29
2024-01-03T12:57:22.330Z,90.07
2024-01-03T12:59:49.579Z,90.34
2024-01-03T13:02:17.356Z,90.62
2024-01-03T13:04:46.063Z,90.32
2024-01-03T13:07:13.910Z,90.55
2024-01-03T13:09:40.858Z,90.89
2024-01-03T13:12:07.639Z,90.59
2024-01-03T13:14:34.331Z,90.76
2024-01-03T13:17:00.866Z,90.93
2024-01-03T13:19:27.892Z,90.79
2024-01-03T13:21:54.599Z,90.72
2024-01-03T13:24:22.562Z,90.56
2024-01-03T13:26:49.079Z,90.25
2024-01-03T13:29:15.524Z,90.16
2024-01-03T13:31:42.021Z,90.10
2024-01-03T13:34:08.628Z,90.71
2024-01-03T13:36:35.353Z,90.90
2024-01-03T13:39:02.077Z,90.77
2024-01-03T13:41:29.720Z,91.21
2024-01-03T13:43:57.470Z,91.25
2024-01-03T13:46:26.783Z,91.48
2024-01-03T13:48:53.461Z,91.52
2024-01-03T13:51:22.846Z,91.50
2024-01-03T13:53:50.341Z,91.73
2024-01-03T13:56:21.605Z,91.66
2024-01-03T13:58:49.563Z,91.76
2024-01-03T14:01:17.258Z,92.28
2024-01-03T14:03:48.501Z,92.32
2024-01-03T14:06:15.701Z,92.72
2024-01-03T14:08:42.723Z,93.09
2024-01-03T14:11:09.469Z,93.51
2024-01-03T14:13:36.227Z,93.41
2024-01-03T14:16:05.662Z,93.66
2024-01-03T14:18:32.515Z,94.15
2024-01-03T14:20:59.193Z,94.10
2024-01-03T14:23:25.738Z,94.18
2024-01-03T14:25:52.222Z,94.00
2024-01-03T14:28:20.147Z,93.82
2024-01-03T14:30:46.950Z,93.77
2024-01-03T14:33:14.602Z,93.43
2024-01-03T14:35:41.326Z,93.65
2024-01-03T14:38:07.840Z,93.61
2024-01-03T14:40:36.434Z,93.73
2024-01-03T14:43:14.710Z,93.83
2024-01-03T14:45:41.170Z,93.88
2024-01-03T14:48:08.215Z,93.79
2024-01-03T14:50:37.806Z,93.85
2024-01-03T14:53:04.588Z,93.82
2024-01-03T14:55:31.048Z,94.10
2024-01-03T14:57:57.503Z,93.86
2024-01-03T15:00:24.846Z,93.81
2024-01-03T15:02:59.774Z,93.95
2024-01-03T15:05:35.473Z,93.75
2024-01-03T15:08:01.970Z,93.76
2024-01-03T15:10:28.428Z,93.57
2024-01-03T15:12:54.906Z,93.48
2024-01-03T15:15:21.405Z,93.31
2024-01-03T15:17:51.448Z,93.44
2024-01-03T15:20:18.065Z,93.05
2024-01-03T15:22:44.697Z,92.78
2024-01-03T15:25:12.125Z,92.96
2024-01-03T15:27:38.562Z,92.95
2024-01-03T15:30:05.922Z,92.85
2024-01-03T15:32:32.526Z,92.94
2024-01-03T15:34:59.112Z,92.83
2024-01-03T15:37:26.257Z,92.85
2024-01-03T15:39:53.039Z,93.31
2024-01-03T15:42:20.028Z,92.69
2024-01-03T15:44:46.538Z,93.03
2024-01-03T15:47:16.088Z,93.20
2024-01-03T15:49:42.805Z,93.23
2024-01-03T15:52:09.959Z,92.97
2024-01-03T15:54:46.375Z,93.31
2024-01-03T15:57:15.033Z,93.10
2024-01-03T15:59:41.806Z,93.07
2024-01-03T16:02:08.488Z,93.17
2024-01-03T16:04:35.041Z,93.39
2024-01-03T16:07:03.454Z,93.31
2024-01-03T16:09:30.235Z,93.55
2024-01-03T16:11:56.767Z,93.23
2024-01-03T16:14:24.494Z,93.33
2024-01-03T16:16:51.451Z,93.84
2024-01-03T16:19:19.351Z,93.72
2024-01-03T16:21:49.886Z,94.05
2024-01-03T16:24:18.294Z,93.35
2024-01-03T16:26:49.559Z,94.18
2024-01-03T16:29:16.373Z,93.92
2024-01-03T16:31:52.996Z,93.96
2024-01-03T16:34:19.541Z,94.30
2024-01-03T16:36:46.061Z,94.15
2024-01-03T16:39:14.471Z,94.01
2024-01-03T16:41:41.004Z,94.18
2024-01-03T16:44:07.503Z,94.51
2024-01-03T16:46:33.939Z,94.44
2024-01-03T16:49:00.677Z,94.65
2024-01-03T16:51:27.172Z,94.63
2024-01-03T16:53:53.566Z,94.69
2024-01-03T16:56:19.993Z,94.63
2024-01-03T16:58:46.534Z,94.49
2024-01-03T17:01:14.998Z,94.47
2024-01-03T17:03:41.752Z,94.88
2024-01-03T17:06:09.747Z,94.77
2024-01-03T17:08:36.922Z,94.83
2024-01-03T17:11:05.561Z,94.97
2024-01-03T17:13:32.033Z,95.36
2024-01-03T17:15:58.555Z,95.77
2024-01-03T17:18:25.145Z,95.42
2024-01-03T17:20:51.831Z,95.02
2024-01-03T17:23:18.305Z,95.04
2024-01-03T17:25:44.865Z,95.08
2024-01-03T17:28:12.253Z,95.36
2024-01-03T17:30:39.447Z,95.18
2024-01-03T17:33:06.066Z,95.02
2024-01-03T17:35:32.653Z,95.12
2024-01-03T17:37:59.110Z,95.21
2024-01-03T17:40:25.620Z,95.27
2024-01-03T17:42:52.380Z,95.19
2024-01-03T17:45:19.050Z,95.30
2024-01-03T17:47:45.604Z,95.49
2024-01-03T17:50:12.115Z,95.78
2024-01-03T17:52:38.675Z,95.68
2024-01-03T17:55:05.262Z,95.61
2024-01-03T17:57:34.415Z,95.77
2024-01-03T18:00:01.006Z,95.94
2024-01-03T18:02:27.572Z,96.31
2024-01-03T18:04:57.046Z,96.02
2024-01-03T18:07:23.439Z,95.92
2024-01-03T18:09:49.863Z,96.22
2024-01-03T18:12:16.321Z,95.94
2024-01-03T18:14:44.023Z,95.62
2024-01-03T18:17:16.745Z,95.86
2024-01-03T18:19:43.512Z,95.76
2024-01-03T18:22:11.941Z,95.85
2024-01-03T18:24:45.240Z,95.74
2024-01-03T18:27:13.950Z,95.81
2024-01-03T18:29:43.468Z,95.87
2024-01-03T18:32:10.023Z,96.27
2024-01-03T18:34:37.967Z,96.01
2024-01-03T18:37:04.742Z,96.30
2024-01-03T18:39:31.228Z,96.65
2024-01-03T18:41:57.770Z,96.37
2024-01-03T18:44:24.330Z,96.78
2024-01-03T18:46:51.007Z,96.39
2024-01-03T18:49:18.361Z,96.79
2024-01-03T18:51:44.985Z,96.49
2024-01-03T18:54:12.808Z,96.57
2024-01-03T18:56:43.456Z,96.62
2024-01-03T18:59:09.980Z,96.26
2024-01-03T19:01:36.565Z,96.26
2024-01-03T19:04:03.372Z,96.34
2024-01-03T19:06:29.869Z,96.17
2024-01-03T19:08:56.436Z,96.34
2024-01-03T19:11:22.855Z,96.37
2024-01-03T19:13:49.331Z,96.24
2024-01-03T19:16:15.781Z,96.56
2024-01-03T19:18:42.505Z,96.00
2024-01-03T19:21:09.209Z,96.08
2024-01-03T19:23:35.795Z,95.56
2024-01-03T19:26:03.669Z,95.80
2024-01-03T19:28:31.775Z,95.85
2024-01-03T19:30:59.745Z,95.65
2024-01-03T19:33:26.661Z,95.66
2024-01-03T19:35:54.431Z,95.81
2024-01-03T19:38:20.967Z,95.87
2024-01-03T19:40:47.440Z,96.02
2024-01-03T19:43:14.013Z,95.66
2024-01-03T19:45:40.467Z,96.05
2024-01-03T19:48:07.276Z,95.83
2024-01-03T19:50:34.408Z,95.80
2024-01-03T19:53:01.211Z,96.41
2024-01-03T19:55:27.590Z,96.29
2024-01-03T19:57:54.652Z,96.33
2024-01-03T20:00:21.138Z,96.44
2024-01-03T20:02:47.601Z,96.36
2024-01-03T20:05:14.197Z,96.36
2024-01-03T20:07:40.920Z,96.68
2024-01-03T20:10:09.589Z,96.67
2024-01-03T20:12:36.273Z,96.69
2024-01-03T20:15:03.001Z,96.40
2024-01-03T20:17:30.105Z,96.77
2024-01-03T20:19:56.783Z,97.05
2024-01-03T20:22:23.580Z,97.12
2024-01-03T20:24:51.144Z,97.29
2024-01-03T20:27:17.723Z,97.12
2024-01-03T20:29:44.234Z,97.42
2024-01-03T20:32:11.796Z,97.53
2024-01-03T20:34:38.624Z,97.14
2024-01-03T20:37:05.077Z,97.21
2024-01-03T20:39:31.537Z,97.43
2024-01-03T20:42:00.376Z,96.96
2024-01-03T20:44:26.900Z,97.00
2024-01-03T20:46:54.231Z,96.86
2024-01-03T20:49:20.823Z,97.05
2024-01-03T20:51:47.987Z,97.13
2024-01-03T20:54:15.079Z,96.74
2024-01-03T20:56:42.717Z,97.00
2024-01-03T20:59:09.597Z,97.09
2024-01-03T21:01:36.127Z,96.71
2024-01-03T21:04:02.730Z,96.58
2024-01-03T21:06:29.226Z,96.96
2024-01-03T21:08:55.632Z,96.78
2024-01-03T21:11:22.091Z,96.62
2024-01-03T21:13:48.492Z,96.93
2024-01-03T21:16:15.406Z,96.47
2024-01-03T21:18:42.023Z,96.85
2024-01-03T21:21:08.752Z,96.87
2024-01-03T21:23:35.234Z,96.45
2024-01-03T21:26:03.153Z,96.34
2024-01-03T21:28:29.955Z,96.79
2024-01-03T21:30:56.543Z,96.40
2024-01-03T21:33:23.109Z,96.52
2024-01-03T21:35:49.567Z,96.43
2024-01-03T21:38:16.142Z,96.30
2024-01-03T21:40:42.635Z,96.88
2024-01-03T21:43:09.058Z,96.48
2024-01-03T21:45:35.637Z,96.72
2024-01-03T21:48:02.188Z,97.00
2024-01-03T21:50:28.806Z,97.04
2024-01-03T21:52:57.496Z,96.96
2024-01-03T21:55:25.052Z,97.24
2024-01-03T21:57:51.452Z,97.25
2024-01-03T22:00:18.319Z,97.10
2024-01-03T22:02:44.985Z,97.06
2024-01-03T22:05:13.383Z,96.96
2024-01-03T22:07:39.833Z,97.35
2024-01-03T22:10:10.672Z,96.91
2024-01-03T22:12:37.188Z,97.34
2024-01-03T22:15:03.927Z,97.47
2024-01-03T22:17:30.549Z,97.14
2024-01-03T22:19:57.091Z,97.12
2024-01-03T22:22:23.522Z,97.19
2024-01-03T22:24:50.736Z,97.08
2024-01-03T22:27:17.314Z,97.18
2024-01-03T22:29:43.752Z,97.14
2024-01-03T22:32:10.226Z,97.19
2024-01-03T22:34:36.766Z,97.28
2024-01-03T22:37:03.296Z,97.40
2024-01-03T22:39:29.789Z,97.40
2024-01-03T22:41:56.271Z,97.48
2024-01-03T22:44:22.737Z,97.42
2024-01-03T22:46:49.190Z,97.26
2024-01-03T22:49:18.046Z,97.64
2024-01-03T22:51:45.427Z,97.54
2024-01-03T22:54:11.930Z,97.75
2024-01-03T22:56:38.585Z,97.52
2024-01-03T22:59:06.180Z,97.43
2024-01-03T23:01:35.726Z,97.65
2024-01-03T23:04:02.251Z,98.00
2024-01-03T23:06:28.816Z,97.94
2024-01-03T23:08:55.486Z,97.91
2024-01-03T23:11:21.945Z,98.12
2024-01-03T23:13:48.676Z,97.86
2024-01-03T23:16:15.201Z,97.81
2024-01-03T23:18:41.777Z,97.82
2024-01-03T23:21:16.104Z,98.00
2024-01-03T23:23:42.788Z,98.14
2024-01-03T23:26:10.350Z,98.17
2024-01-03T23:28:37.007Z,98.27
2024-01-03T23:31:03.801Z,98.47
2024-01-03T23:33:30.511Z,98.25
2024-01-03T23:35:57.007Z,98.07
2024-01-03T23:38:23.555Z,98.43
2024-01-03T23:40:50.255Z,98.43
2024-01-03T23:43:16.912Z,97.85
2024-01-03T23:45:43.341Z,98.35
2024-01-03T23:48:10.334Z,98.01
2024-01-03T23:50:37.095Z,98.27
2024-01-03T23:53:05.559Z,98.13
2024-01-03T23:55:32.792Z,98.11
2024-01-03T23:57:59.409Z,98.00
